Date,TemperatureHighF,TemperatureAvgF,TemperatureLowF,DewpointHighF,DewpointAvgF,DewpointLowF,HumidityHigh,HumidityAvg,HumidityLow,PressureMaxIn,PressureMinIn,WindSpeedMaxMPH,WindSpeedAvgMPH,GustSpeedMaxMPH,PrecipitationSumIn
2013-6-8,72.5,65.6,68.2,60.8,50.6,-99.9,76,67,64,29.94,29.91,4,-57,0,0.00
2013-6-9,75.4,69.2,63.0,69.9,63.0,22.1,98,83,17,29.94,29.82,5,2,0,0.09
2013-6-10,83.8,72.2,65.3,70.1,65.1,19.5,98,81,17,29.97,29.83,8,2,0,0.01
2013-6-11,95.4,78.6,64.2,74.6,67.0,5.6,98,72,9,30.01,29.89,7,1,0,0.00
2013-6-12,95.4,82.4,73.2,79.3,70.8,17.1,98,72,11,29.97,29.70,16,5,0,0.01
2013-6-13,88.9,77.0,64.6,71.7,61.6,15.6,98,63,12,30.12,29.78,12,5,0,0.00
2013-6-14,85.6,73.5,60.8,64.7,60.4,34.5,85,65,33,30.21,29.99,7,3,0,0.00
2013-6-15,89.8,74.3,67.6,73.5,62.6,-99.9,88,69,41,30.08,29.90,9,-8,0,0.02
2013-6-16,91.8,76.1,65.8,63.7,59.3,49.4,84,59,28,30.00,29.94,7,3,0,0.00
2013-6-17,90.7,79.4,64.9,64.2,55.7,43.3,86,50,20,30.00,29.90,9,2,0,0.00
2013-6-18,82.8,72.6,61.7,61.5,54.3,51.6,76,54,35,30.08,29.93,10,5,0,0.00
2013-6-19,90.9,73.0,56.5,54.6,50.4,45.7,71,48,23,30.15,30.05,6,2,0,0.00
2013-6-20,92.8,80.1,63.9,60.9,55.7,50.3,71,46,25,30.11,30.02,7,2,0,0.00
2013-6-21,83.7,77.6,68.2,68.3,63.8,59.0,82,63,53,30.13,29.90,9,4,0,0.06
2013-6-22,94.3,80.9,70.9,70.8,66.8,61.7,76,64,38,30.05,29.89,24,5,0,0.00
2013-6-23,86.7,77.9,70.2,67.2,62.5,58.6,75,60,42,29.99,29.85,8,3,0,0.00
2013-6-24,79.3,69.4,64.8,69.0,65.9,62.6,98,90,62,30.06,29.87,8,1,0,2.60
2013-6-25,90.7,78.3,66.7,73.9,70.1,66.1,98,78,51,29.88,29.78,8,1,0,0.02
2013-6-26,87.4,78.5,67.5,74.4,69.0,65.1,98,74,54,29.79,29.69,13,2,0,0.24
2013-6-27,88.2,79.8,70.0,73.0,66.4,60.4,88,65,45,29.86,29.77,17,5,0,0.00
2013-6-28,84.2,75.8,66.7,62.3,58.5,54.3,77,57,36,29.82,29.69,14,5,0,0.00
2013-6-29,75.4,67.3,63.7,65.7,61.4,59.0,98,82,61,29.83,29.66,19,5,0,1.10
2013-6-30,81.0,71.4,62.1,60.7,57.3,53.8,86,63,41,30.06,29.83,11,5,0,0.00
2013-7-1,81.1,70.1,56.5,54.0,50.7,46.0,81,53,30,30.11,30.04,13,4,0,0.00
2013-7-2,81.9,70.6,58.3,56.6,52.6,49.4,80,55,35,30.11,30.02,11,3,0,0.00
2013-7-3,81.9,69.1,54.0,55.6,50.8,43.6,98,56,26,30.08,30.00,6,1,0,0.00
2013-7-4,90.5,75.5,61.2,60.9,55.1,47.8,74,52,24,30.08,30.00,7,1,0,0.00
2013-7-5,89.4,79.0,66.7,61.4,58.4,54.5,76,51,31,30.06,29.99,6,2,0,0.00
2013-7-6,90.5,77.9,68.0,66.0,61.8,57.8,80,60,35,30.02,29.94,6,2,0,0.00
2013-7-7,91.9,81.8,71.4,67.6,65.2,62.7,77,59,41,29.97,29.92,6,2,0,0.00
2013-7-8,90.7,80.1,72.1,72.2,68.7,65.0,87,69,54,29.98,29.94,11,4,0,0.18
2013-7-9,92.5,80.5,71.8,75.5,71.9,66.7,98,76,55,30.00,29.87,14,2,0,0.10
2013-7-10,84.9,78.5,66.2,77.3,64.6,54.1,98,65,36,30.02,29.85,12,3,0,0.00
2013-7-11,83.8,73.3,59.7,62.1,56.3,52.3,98,59,35,30.11,30.03,10,2,0,0.00
2013-7-12,91.9,74.5,59.2,60.4,54.0,47.7,98,54,24,30.13,30.06,5,0,0,0.00
2013-7-13,86.0,74.3,60.3,60.9,58.0,54.9,83,59,38,30.13,30.06,10,1,0,0.00
2013-7-14,91.9,79.1,65.8,68.7,63.1,60.1,85,61,38,30.18,30.10,7,1,0,0.00
2013-7-15,94.8,82.6,70.9,71.5,69.2,65.7,98,66,41,30.26,30.18,8,2,0,0.00
2013-7-16,99.1,85.3,75.0,74.6,70.9,68.2,98,64,38,30.30,30.21,8,1,0,0.00
2013-7-17,98.4,86.3,75.0,72.5,69.9,66.2,85,60,36,30.32,30.19,7,1,0,0.00
2013-7-18,97.7,86.6,75.6,72.2,70.0,66.9,86,60,38,30.20,29.95,8,2,0,0.00
2013-7-19,96.8,84.9,75.0,70.7,67.8,64.4,76,59,37,29.95,29.77,12,4,0,0.03
2013-7-20,95.7,79.3,66.2,66.5,62.0,58.1,87,58,30,29.93,29.84,6,1,0,0.00
2013-7-21,86.4,76.4,67.3,69.6,63.9,59.6,85,66,48,29.92,29.83,5,1,0,0.00
2013-7-22,92.5,77.1,65.3,72.1,67.5,61.6,98,75,48,29.87,29.71,7,2,0,0.56
2013-7-23,80.2,71.5,63.5,66.1,61.0,55.0,98,72,42,29.96,29.76,7,2,0,0.01
2013-7-24,81.1,68.3,56.1,57.9,54.8,50.0,98,65,36,30.06,29.96,8,1,0,0.00
2013-7-25,86.5,71.9,57.6,60.1,58.1,55.0,98,65,39,30.09,30.01,8,1,0,0.00
2013-7-26,80.2,69.2,61.7,68.4,62.4,52.9,98,81,41,30.05,29.88,11,2,0,0.70
2013-7-27,69.1,60.7,55.2,57.5,50.4,45.0,98,71,46,29.98,29.93,12,4,0,0.00
2013-7-28,74.7,63.6,55.2,53.0,49.9,47.5,82,63,42,30.03,29.89,11,3,0,0.00
2013-7-29,83.5,67.2,52.2,56.2,52.3,48.7,98,63,30,30.14,30.03,9,0,0,0.00
2013-7-30,68.2,66.2,63.5,67.4,62.2,54.5,98,88,63,30.11,30.01,7,1,0,0.24
2013-7-31,83.1,71.7,64.8,68.8,65.0,63.5,98,81,53,30.04,29.94,8,1,0,0.00
2013-8-1,84.7,73.3,61.0,64.6,59.5,53.1,98,67,35,30.04,29.90,6,1,0,0.00
2013-8-2,86.7,76.0,66.9,66.6,63.8,59.6,83,67,48,29.96,29.85,8,2,0,0.00
2013-8-3,84.6,71.9,60.1,63.4,57.0,49.7,98,64,30,30.14,29.96,6,1,0,0.00
2013-8-4,83.7,71.2,56.1,57.5,52.8,47.4,87,56,30,30.18,30.07,4,0,0,0.00
2013-8-5,75.6,67.6,61.3,69.9,62.0,54.2,98,83,66,30.07,29.83,12,2,0,0.94
2013-8-6,91.6,76.4,68.4,73.4,70.7,67.8,98,84,54,29.87,29.79,7,0,0,0.00
2013-8-7,87.3,77.5,64.8,75.7,68.1,61.2,98,76,45,29.96,29.76,10,1,0,0.00
2013-8-8,83.3,72.1,60.3,64.2,62.2,59.7,98,74,47,30.02,29.94,6,1,0,0.00
2013-8-9,82.6,73.0,64.2,66.9,64.2,59.6,98,75,55,30.07,29.97,7,1,0,0.00
2013-8-10,83.5,71.2,57.9,61.0,56.8,50.6,98,65,35,30.16,30.07,7,1,0,0.00
2013-8-11,87.3,73.4,62.4,64.7,61.2,57.6,98,68,44,30.13,30.00,10,1,0,0.00
2013-8-12,84.7,75.1,64.2,68.2,63.5,58.6,84,68,43,30.02,29.91,7,2,0,0.00
2013-8-13,76.3,65.9,57.0,59.7,53.3,46.6,98,68,36,30.15,29.97,11,2,0,0.00
2013-8-14,80.6,64.7,51.1,56.1,49.6,43.3,98,63,29,30.22,30.11,7,0,0,0.00
2013-8-15,78.6,66.3,58.3,55.1,52.9,49.5,85,65,39,30.16,30.07,0,0,0,0.00
2013-8-16,82.6,69.1,54.3,58.7,54.7,48.0,98,65,33,30.18,30.11,5,0,0,0.00
2013-8-17,82.9,69.8,55.6,60.2,55.6,51.3,98,65,35,30.21,30.14,7,0,0,0.00
2013-8-18,85.1,71.4,56.5,60.9,57.5,53.0,98,66,36,30.20,30.09,4,0,0,0.00
2013-8-19,85.1,73.3,63.0,65.3,62.3,59.3,98,70,46,30.11,30.01,5,0,0,0.00
2013-8-20,88.7,78.2,68.4,65.5,63.5,60.6,82,63,42,30.07,29.99,6,1,0,0.00
2013-8-21,90.3,80.4,70.9,67.8,66.0,64.2,81,63,46,30.04,29.95,9,2,0,0.00
2013-8-22,82.2,75.0,67.5,69.0,66.6,64.4,98,76,59,30.13,29.97,14,2,0,0.00
2013-8-23,87.4,73.9,63.0,69.6,62.4,55.6,98,72,37,30.14,30.08,6,1,0,0.00
2013-8-24,88.7,77.0,63.9,68.2,62.9,55.0,76,63,49,30.21,30.12,4,0,0,0.00
2013-8-25,91.4,81.2,72.3,68.3,65.6,61.6,78,61,38,30.22,30.12,9,1,0,0.00
2013-8-26,95.0,82.0,71.1,71.9,67.7,63.7,80,64,38,30.13,29.97,8,2,0,0.00
2013-8-27,97.9,85.2,75.6,70.8,68.2,64.3,82,59,38,29.98,29.85,11,3,0,0.00
2013-8-28,94.1,83.2,73.9,76.9,70.7,63.9,84,67,53,30.01,29.87,8,4,0,0.00
2013-8-29,90.5,80.4,73.8,73.3,70.8,67.0,87,73,56,30.05,29.94,6,1,0,0.00
2013-8-30,101.5,85.6,75.0,76.4,71.1,63.0,98,67,31,29.95,29.75,11,2,0,0.00
2013-8-31,87.6,77.9,71.2,72.8,68.7,64.5,98,75,52,29.82,29.74,9,3,0,0.00
2013-9-1,90.9,76.6,65.8,73.7,65.7,57.4,98,73,38,29.86,29.73,11,2,0,0.00
2013-9-2,80.1,67.9,56.5,61.6,56.7,51.5,98,71,37,30.01,29.86,9,2,0,0.00
2013-9-3,83.5,64.6,49.6,56.9,53.5,49.1,98,72,32,30.09,30.00,4,0,0,0.00
2013-9-4,88.3,71.2,53.6,62.4,57.5,53.0,98,67,36,30.13,30.02,6,0,0,0.00
2013-9-5,87.6,76.2,65.5,69.2,62.3,57.5,79,63,44,30.19,30.09,10,2,0,0.00
2013-9-6,89.6,75.4,60.3,61.5,57.6,52.5,77,56,35,30.18,29.97,7,1,0,0.00
2013-9-7,92.3,80.3,68.7,68.4,64.1,60.4,76,59,42,29.98,29.84,5,0,0,0.00
2013-9-8,86.9,78.4,71.1,70.6,68.3,66.4,98,72,53,29.97,29.86,11,3,0,0.00
2013-9-9,99.7,84.0,71.2,73.5,67.7,60.0,98,64,30,29.89,29.79,7,1,0,0.00
2013-9-10,97.3,85.9,75.7,63.8,59.3,52.1,62,43,23,29.99,29.87,11,2,0,0.00
2013-9-11,84.9,78.5,71.2,70.9,65.6,61.2,98,66,51,30.05,29.98,7,2,0,0.00
2013-9-12,79.3,70.2,57.9,70.3,53.4,40.2,98,60,25,30.10,29.99,15,4,0,0.00
2013-9-13,72.3,59.6,50.2,49.2,41.1,29.6,85,56,22,30.21,30.09,9,3,0,0.00
2013-9-14,76.1,61.3,46.0,47.6,42.6,37.6,98,54,26,30.17,29.97,4,0,0,0.00
2013-9-15,63.9,59.9,53.4,62.2,54.3,41.4,98,85,44,30.19,29.93,9,1,0,0.81
2013-9-16,71.6,58.8,51.4,54.8,50.3,45.7,98,76,42,30.37,30.19,12,3,0,0.00
2013-9-17,71.6,61.2,47.7,59.5,53.2,46.8,98,77,58,30.30,30.04,5,0,0,0.00
2013-9-18,86.0,72.9,62.8,71.2,64.2,55.7,98,75,56,30.04,29.80,7,1,0,0.07
2013-9-19,92.8,79.1,67.3,71.5,66.8,61.0,98,71,35,29.87,29.70,23,2,0,0.43
2013-9-20,69.4,64.7,56.1,66.5,57.5,49.4,98,79,51,29.88,29.78,14,4,0,0.04
2013-9-21,72.7,58.2,47.7,54.4,48.9,45.8,98,75,40,29.94,29.86,8,2,0,0.00
2013-9-22,76.1,59.1,46.8,50.8,48.0,44.9,98,71,33,30.03,29.92,6,0,0,0.00
2013-9-23,76.5,61.7,49.3,52.6,48.7,45.6,98,65,35,30.05,29.92,7,0,0,0.00
2013-9-24,76.3,62.2,48.9,54.2,50.7,47.6,98,69,40,29.96,29.85,7,0,0,0.00
2013-9-25,81.5,64.3,52.0,55.5,51.7,49.2,98,68,33,29.94,29.86,6,1,0,0.00
2013-9-26,84.2,67.6,53.1,59.8,55.2,51.4,98,68,40,30.00,29.91,10,0,0,0.00
2013-9-27,84.4,71.3,60.8,61.0,51.6,47.7,68,51,31,30.07,29.94,5,0,0,0.00
2013-9-28,79.3,66.8,53.6,70.3,58.5,50.4,98,76,54,29.98,29.84,8,1,0,0.15
2013-9-29,75.2,59.0,46.9,55.9,46.9,39.4,98,70,30,30.07,29.95,0,0,0,0.01
2013-9-30,79.5,63.6,48.2,58.4,48.2,43.0,98,61,31,29.96,29.79,5,0,0,0.00
2013-10-1,85.5,70.3,59.7,66.3,61.4,58.0,98,76,45,29.92,29.83,8,1,0,0.00
2013-10-2,85.3,72.4,62.2,63.6,57.1,41.3,98,63,31,30.03,29.88,12,1,0,0.00
2013-10-3,80.4,72.7,67.6,73.7,67.8,63.3,98,85,67,29.88,29.76,5,0,0,0.12
2013-10-4,79.5,72.1,66.4,72.4,67.3,63.2,98,86,65,29.95,29.81,6,0,0,0.30
2013-10-5,75.2,68.5,50.5,73.7,63.3,42.5,98,84,64,29.86,29.76,9,0,0,0.01
2013-10-6,52.3,46.9,42.1,45.9,42.5,37.3,98,86,58,29.80,29.71,7,0,0,0.00
2013-10-7,74.3,57.0,42.1,50.2,44.3,37.2,98,69,27,30.05,29.79,11,1,0,0.00
2013-10-8,78.4,62.5,46.9,51.2,46.4,38.9,98,61,25,30.14,30.06,1,0,0,0.00
2013-10-9,75.2,62.4,49.8,51.3,46.1,37.5,98,60,26,30.18,30.07,4,0,0,0.00
2013-10-10,77.0,61.6,47.3,57.9,51.4,46.5,98,73,40,30.13,29.97,4,0,0,0.00
2013-10-11,77.7,66.7,55.9,60.0,56.1,52.6,98,72,42,29.98,29.82,6,0,0,0.00
2013-10-12,70.2,63.3,49.3,62.5,46.8,35.8,98,57,30,30.19,29.84,10,1,0,0.00
2013-10-13,66.7,52.0,38.7,41.5,33.6,25.2,87,54,22,30.42,30.19,5,0,0,0.00
2013-10-14,65.7,52.8,37.8,44.0,38.3,32.9,98,60,37,30.39,30.03,7,0,0,0.00
2013-10-15,65.3,57.2,49.8,62.7,48.7,38.0,98,75,48,30.02,29.77,11,1,0,0.03
2013-10-16,52.2,50.0,47.8,47.9,45.0,43.1,98,83,74,29.96,29.85,11,1,0,0.00
2013-10-17,61.7,51.4,46.0,47.7,41.2,32.0,98,72,33,29.94,29.81,3,0,0,0.00
2013-10-18,51.6,46.6,41.4,44.6,38.0,34.6,98,72,58,29.98,29.83,9,0,0,0.00
2013-10-19,54.5,45.0,37.4,39.7,35.1,30.7,98,70,42,29.94,29.76,2,0,0,0.00
2013-10-20,61.5,50.0,37.9,46.8,41.3,35.1,98,74,49,29.83,29.68,1,0,0,0.00
2013-10-21,51.3,41.8,33.4,42.7,29.0,21.1,81,62,37,29.99,29.82,8,0,0,0.00
2013-10-22,36.9,33.9,27.7,36.4,32.5,25.0,98,95,73,29.98,29.87,0,0,0,0.36
2013-12-19,36.7,33.7,34.0,36.2,30.5,-99.9,98,95,98,29.80,29.73,0,-27,0,0.20
2013-12-20,33.8,29.1,26.8,33.3,28.6,26.3,98,98,98,29.83,29.71,12,0,0,0.08
2013-12-21,29.3,27.4,25.9,28.8,26.9,25.4,98,98,98,29.84,29.62,2,0,0,0.00
2013-12-22,31.3,24.8,12.6,30.8,24.3,12.1,98,98,98,30.21,29.62,10,0,0,0.00
2013-12-23,11.3,1.3,-5.4,10.8,-4.2,-10.7,98,77,65,30.49,30.21,8,0,0,0.00
2013-12-24,18.7,2.9,-11.9,15.7,-3.4,-17.0,98,75,53,30.56,30.25,0,0,0,0.00
2013-12-25,26.8,23.2,17.8,26.3,21.7,13.2,98,94,78,30.23,30.11,1,0,0,0.00
2013-12-26,37.0,26.3,14.9,32.4,23.7,14.4,98,90,71,30.23,30.09,0,0,0,0.00
2013-12-27,41.2,33.3,21.4,35.2,29.0,20.9,98,85,66,30.26,30.09,9,0,0,0.14
2013-12-28,47.5,41.2,33.6,38.0,35.1,31.6,98,80,63,30.09,29.77,1,0,0,0.00
2013-12-29,42.8,19.0,-2.4,34.2,14.7,-10.0,98,83,67,30.27,29.77,17,2,0,0.00
2013-12-30,11.1,2.8,-7.6,10.6,-4.0,-14.3,98,74,43,30.32,30.17,0,0,0,0.00
2013-12-31,17.4,6.7,-3.3,10.7,3.8,-6.7,98,88,73,30.33,30.19,6,0,0,0.00
2014-1-1,14.0,10.7,7.2,13.5,9.3,6.0,98,94,83,30.24,30.17,11,1,0,0.00
2014-1-2,14.5,7.7,-4.9,14.0,6.6,-8.2,98,95,85,30.44,30.20,2,0,0,0.00